Turner Center, Maine
Current Conditions -  °F | °C
As of 8:15 AM on Thursday 27 Nov 2014 (Local Time) from KLEW Reporting Station
Clear Clear  
Wind Chill: -7°   Ceiling: Unl
Heat Index: -2°   Visibility: 10mi
Dew Point: -4°   Wind: 9mph
Humidity: 86%   Direction: 320°NW
Pressure: 29.84"   Gusts: NA
Location:  44.27°N, 70.22°W
Report Text: KLEW 271315Z AUTO 32008KT 10SM CLR M02/M04 A2984 RMK AO1
Loading
Personal Weather Stations






























Interactive Weather Map New forecast layout! Learn more

10-Day Weather Forecast

Advertisements
Track Severe Weather on mobile